createdAt,value
2019-05-07T00:02:14.326Z,9.70
2019-05-07T00:04:42.932Z,9.83
2019-05-07T00:07:13.043Z,10.23
2019-05-07T00:09:43.003Z,9.03
2019-05-07T00:12:12.685Z,9.00
2019-05-07T00:14:42.978Z,9.53
2019-05-07T00:17:13.079Z,9.47
2019-05-07T00:19:43.189Z,9.50
2019-05-07T00:22:12.519Z,9.80
2019-05-07T00:24:42.606Z,8.63
2019-05-07T00:27:13.150Z,9.07
2019-05-07T00:29:43.238Z,10.10
2019-05-07T00:32:13.235Z,9.27
2019-05-07T00:34:44.561Z,9.37
2019-05-07T00:37:32.278Z,8.90
2019-05-07T00:40:06.873Z,9.73
2019-05-07T00:42:38.413Z,9.53
2019-05-07T00:45:17.860Z,9.97
2019-05-07T00:47:44.424Z,9.87
2019-05-07T00:50:15.971Z,10.20
2019-05-07T00:52:46.508Z,10.50
2019-05-07T00:55:17.974Z,10.00
2019-05-07T00:57:48.141Z,9.10
2019-05-07T01:00:18.156Z,9.80
2019-05-07T01:02:48.464Z,9.97
2019-05-07T01:05:18.728Z,9.67
2019-05-07T01:07:49.132Z,9.33
2019-05-07T01:10:19.598Z,10.50
2019-05-07T01:12:49.365Z,11.00
2019-05-07T01:15:28.809Z,11.23
2019-05-07T01:17:52.348Z,10.30
2019-05-07T01:20:22.277Z,10.97
2019-05-07T01:22:54.407Z,10.60
2019-05-07T01:25:23.796Z,11.30
2019-05-07T01:27:53.645Z,11.10
2019-05-07T01:30:23.943Z,11.07
2019-05-07T01:32:55.379Z,10.37
2019-05-07T01:35:33.412Z,11.40
2019-05-07T01:38:03.691Z,10.90
2019-05-07T01:40:34.173Z,10.73
2019-05-07T01:43:05.588Z,11.00
2019-05-07T01:45:46.411Z,10.90
2019-05-07T01:48:09.263Z,10.63
2019-05-07T01:50:39.561Z,10.17
2019-05-07T01:53:09.656Z,11.67
2019-05-07T01:55:40.134Z,10.03
2019-05-07T01:58:12.363Z,10.20
2019-05-07T02:00:42.591Z,10.57
2019-05-07T02:03:17.346Z,11.27
2019-05-07T02:05:49.290Z,10.00
2019-05-07T02:08:22.216Z,10.37
2019-05-07T02:10:54.042Z,9.93
2019-05-07T02:13:23.838Z,11.07
2019-05-07T02:16:00.884Z,10.37
2019-05-07T02:18:25.549Z,10.33
2019-05-07T02:20:55.766Z,10.27
2019-05-07T02:23:25.745Z,10.77
2019-05-07T02:25:57.292Z,10.00
2019-05-07T02:28:28.625Z,10.20
2019-05-07T02:30:58.879Z,11.10
2019-05-07T02:33:28.828Z,10.73
2019-05-07T02:35:59.402Z,10.70
2019-05-07T02:38:47.334Z,10.10
2019-05-07T02:41:23.440Z,10.27
2019-05-07T02:43:54.441Z,10.43
2019-05-07T02:46:31.546Z,11.43
2019-05-07T02:49:02.883Z,11.40
2019-05-07T02:51:33.840Z,11.20
2019-05-07T02:54:14.181Z,11.20
2019-05-07T02:56:44.251Z,9.73
2019-05-07T02:59:14.769Z,10.10
2019-05-07T03:01:45.190Z,10.50
2019-05-07T03:04:15.433Z,10.47
2019-05-07T03:06:45.965Z,10.43
2019-05-07T03:09:15.952Z,11.17
2019-05-07T03:11:46.494Z,11.50
2019-05-07T03:14:16.464Z,10.83
2019-05-07T03:16:49.279Z,10.37
2019-05-07T03:19:16.989Z,9.63
2019-05-07T03:21:54.915Z,12.53
2019-05-07T03:24:27.471Z,11.30
2019-05-07T03:26:58.276Z,10.97
2019-05-07T03:29:28.817Z,10.77
2019-05-07T03:32:09.672Z,9.93
2019-05-07T03:34:45.799Z,9.83
2019-05-07T03:37:14.415Z,10.33
2019-05-07T03:39:44.469Z,11.70
2019-05-07T03:42:14.815Z,10.13
2019-05-07T03:45:03.701Z,10.27
2019-05-07T03:47:43.900Z,10.57
2019-05-07T03:50:14.581Z,9.50
2019-05-07T03:52:45.648Z,11.13
2019-05-07T03:55:16.820Z,10.00
2019-05-07T03:57:46.824Z,12.03
2019-05-07T04:00:17.497Z,12.00
2019-05-07T04:02:47.902Z,14.70
2019-05-07T04:05:18.078Z,12.73
2019-05-07T04:07:48.462Z,14.93
2019-05-07T04:10:16.938Z,16.73
2019-05-07T04:12:45.270Z,16.70
2019-05-07T04:15:16.703Z,14.23
2019-05-07T04:17:43.944Z,14.60
2019-05-07T04:20:13.470Z,15.40
2019-05-07T04:22:43.284Z,16.00
2019-05-07T04:25:14.694Z,15.07
2019-05-07T04:27:47.476Z,15.00
2019-05-07T04:30:16.024Z,13.13
2019-05-07T04:32:54.908Z,12.50
2019-05-07T04:35:27.462Z,12.30
2019-05-07T04:37:55.892Z,14.60
2019-05-07T04:40:24.359Z,13.40
2019-05-07T04:42:53.799Z,12.77
2019-05-07T04:45:23.517Z,11.90
2019-05-07T04:47:53.847Z,11.20
2019-05-07T04:50:38.248Z,10.90
2019-05-07T04:52:54.131Z,11.30
2019-05-07T04:55:23.086Z,11.90
2019-05-07T04:57:53.362Z,10.83
2019-05-07T05:00:22.927Z,11.07
2019-05-07T05:02:55.720Z,11.93
2019-05-07T05:05:25.035Z,10.80
2019-05-07T05:07:53.607Z,11.30
2019-05-07T05:10:23.177Z,11.60
2019-05-07T05:12:53.582Z,11.77
2019-05-07T05:15:22.345Z,12.93
2019-05-07T05:17:53.689Z,12.13
2019-05-07T05:20:22.771Z,12.03
2019-05-07T05:22:53.244Z,11.20
2019-05-07T05:25:25.966Z,11.10
2019-05-07T05:27:54.267Z,11.40
2019-05-07T05:30:39.180Z,12.07
2019-05-07T05:33:07.540Z,13.07
2019-05-07T05:35:37.039Z,13.30
2019-05-07T05:38:05.787Z,13.90
2019-05-07T05:40:34.399Z,12.60
2019-05-07T05:43:22.304Z,13.80
2019-05-07T05:45:53.003Z,12.77
2019-05-07T05:48:22.367Z,13.10
2019-05-07T05:51:02.699Z,12.67
2019-05-07T05:53:52.416Z,13.70
2019-05-07T05:56:28.469Z,12.27
2019-05-07T05:59:02.845Z,11.37
2019-05-07T06:01:33.039Z,11.30
2019-05-07T06:04:18.386Z,11.90
2019-05-07T06:07:08.015Z,11.70
2019-05-07T06:09:32.805Z,12.23
2019-05-07T06:12:08.952Z,12.20
2019-05-07T06:14:47.751Z,12.13
2019-05-07T06:17:31.929Z,10.90
2019-05-07T06:20:13.558Z,11.60
2019-05-07T06:22:55.964Z,10.53
2019-05-07T06:25:26.329Z,12.20
2019-05-07T06:27:54.803Z,10.83
2019-05-07T06:30:23.288Z,11.03
2019-05-07T06:32:52.274Z,11.80
2019-05-07T06:35:22.826Z,11.80
2019-05-07T06:37:52.145Z,11.33
2019-05-07T06:40:26.643Z,11.00
2019-05-07T06:43:06.011Z,10.80
2019-05-07T06:45:36.026Z,11.03
2019-05-07T06:48:04.883Z,12.83
2019-05-07T06:50:33.320Z,12.17
2019-05-07T06:53:02.670Z,11.30
2019-05-07T06:55:32.419Z,11.30
2019-05-07T06:58:02.621Z,10.93
2019-05-07T07:00:39.517Z,11.27
2019-05-07T07:03:09.627Z,11.20
2019-05-07T07:05:39.652Z,11.17
2019-05-07T07:08:09.820Z,11.00
2019-05-07T07:10:48.531Z,9.97
2019-05-07T07:13:17.000Z,11.20
2019-05-07T07:15:45.376Z,10.07
2019-05-07T07:18:13.910Z,10.10
2019-05-07T07:20:43.023Z,10.47
2019-05-07T07:23:11.847Z,10.03
2019-05-07T07:25:42.856Z,11.40
2019-05-07T07:28:12.349Z,10.63
2019-05-07T07:30:57.396Z,10.97
2019-05-07T07:33:27.476Z,10.20
2019-05-07T07:35:56.269Z,10.40
2019-05-07T07:38:35.373Z,10.03
2019-05-07T07:41:17.517Z,8.23
2019-05-07T07:43:45.801Z,9.50
2019-05-07T07:46:16.518Z,8.67
2019-05-07T07:48:44.622Z,8.70
2019-05-07T07:51:13.859Z,8.70
2019-05-07T07:53:42.819Z,7.77
2019-05-07T07:56:27.941Z,7.63
2019-05-07T07:59:14.159Z,8.00
2019-05-07T08:02:01.837Z,7.40
2019-05-07T08:04:32.041Z,7.30
2019-05-07T08:07:03.817Z,7.30
2019-05-07T08:09:35.642Z,7.70
2019-05-07T08:12:05.503Z,8.23
2019-05-07T08:14:34.195Z,6.60
2019-05-07T08:17:04.419Z,7.50
2019-05-07T08:19:33.121Z,8.77
2019-05-07T08:22:02.783Z,8.10
2019-05-07T08:24:32.213Z,8.43
2019-05-07T08:27:02.322Z,9.00
2019-05-07T08:29:32.625Z,8.43
2019-05-07T08:32:09.297Z,8.10
2019-05-07T08:34:39.516Z,8.33
2019-05-07T08:37:09.112Z,7.83
2019-05-07T08:39:37.565Z,7.13
2019-05-07T08:42:05.973Z,7.60
2019-05-07T08:44:51.992Z,7.70
2019-05-07T08:47:25.075Z,6.90
2019-05-07T08:49:53.349Z,6.60
2019-05-07T08:52:22.696Z,6.60
2019-05-07T08:54:52.237Z,6.07
2019-05-07T08:57:22.790Z,6.70
2019-05-07T08:59:58.481Z,6.13
2019-05-07T09:02:22.237Z,6.60
2019-05-07T09:04:52.252Z,6.47
2019-05-07T09:07:21.875Z,5.13
2019-05-07T09:09:52.404Z,5.60
2019-05-07T09:12:22.744Z,5.27
2019-05-07T09:14:52.731Z,5.20
2019-05-07T09:17:22.783Z,5.23
2019-05-07T09:19:54.508Z,4.93
2019-05-07T09:22:23.026Z,5.40
2019-05-07T09:24:52.655Z,5.30
2019-05-07T09:27:23.084Z,5.20
2019-05-07T09:29:59.182Z,4.90
2019-05-07T09:32:29.161Z,5.90
2019-05-07T09:34:59.110Z,5.63
2019-05-07T09:37:29.178Z,4.40
2019-05-07T09:39:57.643Z,4.73
2019-05-07T09:42:26.558Z,7.00
2019-05-07T09:44:54.933Z,5.50
2019-05-07T09:47:23.445Z,6.50
2019-05-07T09:50:04.027Z,6.23
2019-05-07T09:52:22.871Z,5.40
2019-05-07T09:54:52.294Z,5.90
2019-05-07T09:57:30.105Z,6.00
2019-05-07T09:59:53.050Z,6.03
2019-05-07T10:02:22.701Z,5.87
2019-05-07T10:04:52.594Z,5.73
2019-05-07T10:07:22.325Z,5.00
2019-05-07T10:09:52.346Z,5.33
2019-05-07T10:12:25.716Z,4.77
2019-05-07T10:14:54.101Z,4.70
2019-05-07T10:17:26.643Z,4.70
2019-05-07T10:19:55.071Z,4.37
2019-05-07T10:22:23.445Z,5.23
2019-05-07T10:24:52.283Z,4.70
2019-05-07T10:27:21.825Z,5.00
2019-05-07T10:29:50.293Z,5.50
2019-05-07T10:32:20.409Z,5.10
2019-05-07T10:34:49.060Z,5.00
2019-05-07T10:37:17.457Z,4.93
2019-05-07T10:39:46.132Z,5.77
2019-05-07T10:42:14.491Z,5.47
2019-05-07T10:44:52.316Z,5.30
2019-05-07T10:47:33.998Z,5.37
2019-05-07T10:50:34.598Z,5.23
2019-05-07T10:52:52.856Z,5.40
2019-05-07T10:55:22.323Z,5.73
2019-05-07T10:57:52.745Z,5.57
2019-05-07T11:00:22.944Z,5.67
2019-05-07T11:02:51.862Z,5.53
2019-05-07T11:05:21.929Z,5.30
2019-05-07T11:07:50.434Z,5.70
2019-05-07T11:10:18.892Z,5.57
2019-05-07T11:12:47.251Z,5.30
2019-05-07T11:15:15.911Z,4.77
2019-05-07T11:17:54.916Z,4.90
2019-05-07T11:20:24.979Z,5.40
2019-05-07T11:22:53.439Z,5.30
2019-05-07T11:25:22.571Z,5.40
2019-05-07T11:27:52.401Z,5.60
2019-05-07T11:30:22.799Z,5.00
2019-05-07T11:32:52.246Z,4.97
2019-05-07T11:35:22.907Z,5.00
2019-05-07T11:37:52.138Z,5.20
2019-05-07T11:40:22.879Z,4.97
2019-05-07T11:43:07.924Z,5.90
2019-05-07T11:45:37.874Z,5.13
2019-05-07T11:48:06.346Z,5.20
2019-05-07T11:50:36.551Z,5.20
2019-05-07T11:53:09.168Z,5.33
2019-05-07T11:55:37.466Z,5.20
2019-05-07T11:58:06.151Z,5.30
2019-05-07T12:00:36.247Z,5.07
2019-05-07T12:03:04.881Z,5.33
2019-05-07T12:05:34.930Z,6.20
2019-05-07T12:08:03.509Z,5.30
2019-05-07T12:10:32.755Z,5.63
2019-05-07T12:13:02.345Z,4.87
2019-05-07T12:15:32.439Z,5.47
2019-05-07T12:18:03.100Z,5.37
2019-05-07T12:20:32.436Z,4.93
2019-05-07T12:23:02.848Z,5.67
2019-05-07T12:25:32.053Z,5.43
2019-05-07T12:28:02.340Z,5.30
2019-05-07T12:30:32.773Z,5.63
2019-05-07T12:33:12.368Z,5.17
2019-05-07T12:35:42.034Z,5.00
2019-05-07T12:38:12.685Z,4.73
2019-05-07T12:40:41.890Z,5.37
2019-05-07T12:43:10.634Z,4.90
2019-05-07T12:45:39.079Z,5.27
2019-05-07T12:48:07.495Z,6.23
2019-05-07T12:50:35.824Z,4.97
2019-05-07T12:53:18.167Z,5.47
2019-05-07T12:55:48.110Z,5.90
2019-05-07T12:58:16.549Z,5.10
2019-05-07T13:00:52.445Z,5.50
2019-05-07T13:03:35.002Z,5.13
2019-05-07T13:06:03.431Z,5.47
2019-05-07T13:08:32.937Z,5.20
2019-05-07T13:11:03.111Z,6.00
2019-05-07T13:13:32.104Z,5.93
2019-05-07T13:16:02.713Z,5.90
2019-05-07T13:18:30.966Z,5.53
2019-05-07T13:20:59.486Z,4.90
2019-05-07T13:23:27.923Z,5.83
2019-05-07T13:25:56.516Z,4.73
2019-05-07T13:28:24.844Z,4.63
2019-05-07T13:30:53.162Z,5.60
2019-05-07T13:33:22.818Z,5.23
2019-05-07T13:35:52.247Z,5.20
2019-05-07T13:38:28.181Z,4.40
2019-05-07T13:41:07.321Z,4.73
2019-05-07T13:43:37.504Z,5.13
2019-05-07T13:46:07.637Z,4.93
2019-05-07T13:48:37.941Z,4.50
2019-05-07T13:51:06.324Z,5.07
2019-05-07T13:53:34.702Z,4.33
2019-05-07T13:56:03.147Z,4.50
2019-05-07T13:58:32.945Z,4.43
2019-05-07T14:01:08.844Z,4.43
2019-05-07T14:03:37.225Z,4.70
2019-05-07T14:06:05.619Z,4.83
2019-05-07T14:08:35.613Z,4.30
2019-05-07T14:11:04.041Z,4.60
2019-05-07T14:13:32.699Z,5.10
2019-05-07T14:16:08.833Z,4.10
2019-05-07T14:18:38.569Z,4.23
2019-05-07T14:21:07.895Z,4.73
2019-05-07T14:23:36.771Z,4.83
2019-05-07T14:26:05.438Z,5.00
2019-05-07T14:28:34.042Z,5.40
2019-05-07T14:31:04.056Z,3.83
2019-05-07T14:33:37.138Z,5.20
2019-05-07T14:36:19.093Z,5.13
2019-05-07T14:38:56.265Z,4.37
2019-05-07T14:41:25.669Z,5.93
2019-05-07T14:43:56.183Z,5.33
2019-05-07T14:46:24.558Z,5.00
2019-05-07T14:48:53.255Z,4.50
2019-05-07T14:51:22.141Z,4.87
2019-05-07T14:53:50.662Z,4.37
2019-05-07T14:56:19.101Z,4.90
2019-05-07T14:58:47.711Z,4.67
2019-05-07T15:01:16.087Z,4.70
2019-05-07T15:03:45.187Z,4.77
2019-05-07T15:06:13.708Z,4.80
2019-05-07T15:08:42.898Z,5.03
2019-05-07T15:11:11.448Z,5.00
2019-05-07T15:13:39.860Z,5.20
2019-05-07T15:16:08.228Z,4.67
2019-05-07T15:18:43.939Z,5.37
2019-05-07T15:21:13.334Z,5.00
2019-05-07T15:23:42.521Z,5.10
2019-05-07T15:26:12.801Z,5.30
2019-05-07T15:28:43.008Z,4.50
2019-05-07T15:31:15.504Z,5.30
2019-05-07T15:33:44.151Z,4.57
2019-05-07T15:36:12.492Z,3.93
2019-05-07T15:38:42.715Z,4.80
2019-05-07T15:41:11.094Z,4.13
2019-05-07T15:43:39.548Z,4.20
2019-05-07T15:46:07.944Z,3.80
2019-05-07T15:48:36.319Z,4.40
2019-05-07T15:51:04.706Z,5.03
2019-05-07T15:53:34.829Z,4.70
2019-05-07T15:56:03.560Z,4.50
2019-05-07T15:58:32.107Z,4.20
2019-05-07T16:01:02.214Z,4.90
2019-05-07T16:03:34.987Z,4.90
2019-05-07T16:06:03.786Z,4.60
2019-05-07T16:08:34.051Z,5.20
2019-05-07T16:11:03.823Z,4.80
2019-05-07T16:13:33.877Z,4.87
2019-05-07T16:16:02.439Z,4.70
2019-05-07T16:18:32.764Z,4.50
2019-05-07T16:21:02.483Z,5.00
2019-05-07T16:23:32.638Z,5.00
2019-05-07T16:26:02.500Z,4.80
2019-05-07T16:28:32.406Z,4.33
2019-05-07T16:31:02.556Z,5.47
2019-05-07T16:33:31.972Z,4.17
2019-05-07T16:36:02.121Z,4.83
2019-05-07T16:38:32.572Z,4.47
2019-05-07T16:41:00.623Z,5.50
2019-05-07T16:43:28.914Z,4.80
2019-05-07T16:45:57.290Z,5.20
2019-05-07T16:48:25.638Z,4.60
2019-05-07T16:50:54.106Z,4.30
2019-05-07T16:53:29.729Z,4.47
2019-05-07T16:55:52.657Z,4.80
2019-05-07T16:58:34.892Z,4.40
2019-05-07T17:01:03.955Z,5.03
2019-05-07T17:03:34.080Z,5.10
2019-05-07T17:06:02.376Z,4.43
2019-05-07T17:08:32.437Z,7.60
2019-05-07T17:11:02.896Z,5.00
2019-05-07T17:13:31.905Z,5.63
2019-05-07T17:16:03.412Z,5.93
2019-05-07T17:18:32.766Z,7.70
2019-05-07T17:21:02.027Z,5.70
2019-05-07T17:23:43.265Z,10.40
2019-05-07T17:26:00.914Z,6.10
2019-05-07T17:28:29.351Z,4.97
2019-05-07T17:30:57.676Z,4.90
2019-05-07T17:33:26.176Z,4.93
2019-05-07T17:35:54.765Z,4.87
2019-05-07T17:38:23.311Z,5.50
2019-05-07T17:40:52.429Z,5.40
2019-05-07T17:43:22.044Z,5.20
2019-05-07T17:45:52.365Z,4.90
2019-05-07T17:48:23.046Z,5.07
2019-05-07T17:50:52.648Z,6.63
2019-05-07T17:53:22.532Z,5.33
2019-05-07T17:55:52.862Z,4.73
2019-05-07T17:58:21.268Z,6.17
2019-05-07T18:00:52.870Z,5.60
2019-05-07T18:03:22.898Z,7.63
2019-05-07T18:05:51.953Z,7.27
2019-05-07T18:08:21.739Z,7.50
2019-05-07T18:10:50.217Z,5.60
2019-05-07T18:13:18.612Z,5.50
2019-05-07T18:15:47.059Z,5.30
2019-05-07T18:18:15.447Z,6.00
2019-05-07T18:20:47.409Z,6.23
2019-05-07T18:23:17.089Z,5.70
2019-05-07T18:25:46.798Z,6.10
2019-05-07T18:28:16.170Z,5.43
2019-05-07T18:30:44.803Z,5.30
2019-05-07T18:33:14.910Z,5.43
2019-05-07T18:35:45.650Z,5.57
2019-05-07T18:38:14.098Z,5.97
2019-05-07T18:40:42.429Z,5.80
2019-05-07T18:43:12.294Z,6.50
2019-05-07T18:45:41.018Z,6.90
2019-05-07T18:48:11.726Z,5.90
2019-05-07T18:50:41.796Z,8.20
2019-05-07T18:53:11.986Z,5.63
2019-05-07T18:55:42.193Z,6.00
2019-05-07T18:58:10.343Z,6.53
2019-05-07T19:00:46.585Z,6.43
2019-05-07T19:03:15.009Z,5.97
2019-05-07T19:05:43.425Z,6.27
2019-05-07T19:08:12.566Z,5.60
2019-05-07T19:10:42.923Z,5.37
2019-05-07T19:13:11.462Z,6.30
2019-05-07T19:15:42.032Z,6.33
2019-05-07T19:18:12.027Z,6.80
2019-05-07T19:20:42.184Z,6.40
2019-05-07T19:23:10.755Z,5.57
2019-05-07T19:25:39.225Z,6.30
2019-05-07T19:28:07.903Z,6.90
2019-05-07T19:30:36.408Z,7.50
2019-05-07T19:33:04.956Z,7.20
2019-05-07T19:35:33.398Z,7.30
2019-05-07T19:38:02.813Z,7.93
2019-05-07T19:40:32.473Z,7.53
2019-05-07T19:43:03.043Z,8.13
2019-05-07T19:45:31.207Z,8.30
2019-05-07T19:47:59.773Z,7.87
2019-05-07T19:50:28.117Z,7.53
2019-05-07T19:52:56.687Z,7.30
2019-05-07T19:55:25.072Z,6.90
2019-05-07T20:00:29.750Z,6.93
2019-05-07T20:02:59.810Z,8.27
2019-05-07T20:05:28.251Z,8.20
2019-05-07T20:08:01.685Z,7.70
2019-05-07T20:10:28.970Z,7.93
2019-05-07T20:12:57.424Z,9.10
2019-05-07T20:15:26.625Z,8.10
2019-05-07T20:17:55.064Z,8.77
2019-05-07T20:20:23.555Z,9.30
2019-05-07T20:22:51.967Z,8.77
2019-05-07T20:25:22.412Z,8.80
2019-05-07T20:27:52.586Z,8.60
2019-05-07T20:30:22.753Z,8.30
2019-05-07T20:32:52.307Z,8.60
2019-05-07T20:35:20.847Z,7.53
2019-05-07T20:37:49.444Z,8.10
2019-05-07T20:40:17.937Z,8.40
2019-05-07T20:42:46.463Z,7.43
2019-05-07T20:45:15.021Z,8.60
2019-05-07T20:47:43.468Z,7.80
2019-05-07T20:50:12.915Z,8.63
2019-05-07T20:52:41.883Z,9.30
2019-05-07T20:55:28.156Z,9.20
2019-05-07T20:57:47.443Z,10.17
2019-05-07T21:00:29.701Z,8.53
2019-05-07T21:03:12.553Z,8.57
2019-05-07T21:05:42.203Z,8.90
2019-05-07T21:08:11.906Z,8.97
2019-05-07T21:10:42.639Z,7.93
2019-05-07T21:13:26.824Z,9.20
2019-05-07T21:15:41.926Z,8.43
2019-05-07T21:18:12.306Z,8.83
2019-05-07T21:20:42.076Z,8.30
2019-05-07T21:23:12.220Z,8.80
2019-05-07T21:25:43.473Z,8.87
2019-05-07T21:28:12.200Z,8.50
2019-05-07T21:30:42.710Z,9.20
2019-05-07T21:33:11.945Z,9.00
2019-05-07T21:35:42.707Z,8.97
2019-05-07T21:38:12.629Z,9.67
2019-05-07T21:40:42.870Z,9.00
2019-05-07T21:43:12.312Z,9.10
2019-05-07T21:45:42.351Z,8.83
2019-05-07T21:48:10.800Z,10.20
2019-05-07T21:50:39.295Z,9.73
2019-05-07T21:53:26.928Z,9.67
2019-05-07T21:56:02.204Z,10.13
2019-05-07T21:58:30.137Z,11.00
2019-05-07T22:01:12.627Z,9.37
2019-05-07T22:03:43.164Z,10.50
2019-05-07T22:06:12.853Z,10.10
2019-05-07T22:08:41.368Z,10.47
2019-05-07T22:11:12.376Z,9.40
2019-05-07T22:13:43.306Z,9.67
2019-05-07T22:16:12.961Z,10.10
2019-05-07T22:18:42.680Z,10.10
2019-05-07T22:21:12.501Z,10.13
2019-05-07T22:23:42.763Z,9.80
2019-05-07T22:26:20.098Z,9.67
2019-05-07T22:28:42.012Z,9.30
2019-05-07T22:31:24.343Z,10.07
2019-05-07T22:33:54.420Z,10.23
2019-05-07T22:36:22.793Z,10.10
2019-05-07T22:38:52.863Z,10.37
2019-05-07T22:41:22.444Z,9.10
2019-05-07T22:43:51.008Z,10.40
2019-05-07T22:46:19.313Z,10.90
2019-05-07T22:48:47.695Z,10.33
2019-05-07T22:51:15.995Z,9.83
2019-05-07T22:53:44.333Z,10.20
2019-05-07T22:56:14.139Z,9.53
2019-05-07T22:58:50.350Z,9.80
2019-05-07T23:01:22.630Z,10.17
2019-05-07T23:03:51.814Z,9.40
2019-05-07T23:06:23.216Z,10.20
2019-05-07T23:08:52.869Z,10.27
2019-05-07T23:11:22.919Z,9.87
2019-05-07T23:13:54.373Z,10.23
2019-05-07T23:16:23.155Z,10.80
2019-05-07T23:18:51.787Z,9.60
2019-05-07T23:21:24.271Z,9.60
2019-05-07T23:23:52.621Z,9.90
2019-05-07T23:26:20.302Z,10.23
2019-05-07T23:28:48.781Z,9.67
2019-05-07T23:31:17.109Z,9.30
2019-05-07T23:33:45.390Z,10.40
2019-05-07T23:36:13.777Z,9.90
2019-05-07T23:38:42.746Z,9.77
2019-05-07T23:41:15.876Z,10.50
2019-05-07T23:43:45.903Z,9.80
2019-05-07T23:46:14.299Z,9.90
2019-05-07T23:48:42.785Z,10.03
2019-05-07T23:51:12.615Z,9.60
2019-05-07T23:53:44.155Z,9.70
2019-05-07T23:56:13.095Z,9.20
2019-05-07T23:58:42.033Z,10.43
